COOK1: Arkansas River Nr Coolidge, KS

                                SHEF ID:       COOK1     ARKANSAS R NR COOLIDGE, KS
STATION TYPE:
Regulating: Stage = 8.00, Flow = 2028

PRECIP STAGE STAGE(2) RIV-FLOW WTR-TEMP CONDUCT BAT-LOAD
in ft ft cfs F umho/cm volt
Ccp-Rev Ccp-Rev Ccp-Rev Ccp-Rev Ccp-Rev Ccp-Rev Ccp-Rev
(America/Chicago)
08/08 00:00 0.00 3.58 3.80 172 77.41 4559 12.95
08/08 01:00 0.00 3.57 3.79 170 76.23 4579 12.89
08/08 02:00 0.00 3.59 3.80 174 75.22 4595 12.89
08/08 03:00 0.00 3.59 3.79 174 74.57 4624 12.89
08/08 04:00 0.00 3.57 3.79 170 74.07 4635 12.89
08/08 05:00 0.00 3.57 3.79 170 73.58 4621 12.83
08/08 06:00 0.00 3.55 3.78 167 73.17 4603 12.83
08/08 07:00 0.00 3.56 3.77 169 72.72 4594 12.83
08/08 08:00 0.00 3.55 3.75 167 72.39 4594 12.77
08/08 09:00 0.00 3.53 3.75 164 72.05 4601 12.77
08/08 10:00 0.00 3.51 3.75 161 71.87 4595 12.89
08/08 11:00 0.00 3.52 3.74 162 71.80 4606 13.30
08/08 12:00 0.00 3.52 3.75 162 72.05 4617 13.53
08/08 13:00 0.00 3.53 3.74 164 72.54 4635 13.83
08/08 14:00 0.00 3.53 3.74 164 72.79 4655 13.53
08/08 15:00 0.00 3.50 3.75 159 73.51 4671 13.71
08/08 16:00 0.00 3.53 3.75 164 74.07 4678 13.65
08/08 17:00 0.00 3.53 3.76 164 74.82 4678 13.65
08/08 18:00 0.00 3.52 3.75 162 75.34 4669 13.42
08/08 19:00 0.00 3.52 3.75 162 75.47 4658 13.30
08/08 20:00 0.00 3.51 3.72 161 75.27 4649 13.18
08/08 21:00 0.00 3.50 3.70 159 74.71 4630 13.00
08/08 22:00 0.00 3.62 3.81 179 73.98 4642 13.00
08/08 23:00 ---- ---- ---- ---- ---- ---- ----
Data processed at Fri 09Aug2024 04:30 GMT

Parsing this webpage?

Checkout our new Data API! CWMSDataAPI (CDA)

Timeseries IDs (TSIDs)

TSIDs used from left to right in the data table
COOL.Precip-Inc.Total.1Hour.1Hour.Ccp-Rev
COOL.Stage.Inst.1Hour.0.Ccp-Rev
COOL.Stage-Alt.Inst.1Hour.0.Ccp-Rev
COOL.Flow.Inst.1Hour.0.Ccp-Rev
COOL.Temp-Water.Inst.1Hour.0.Ccp-Rev
COOL.Cond.Inst.1Hour.0.Ccp-Rev
COOL.Volt-Battery Load.Inst.1Hour.0.Ccp-Rev

                            

All information presented herein is the property of the government of the United States of America and may be revised or deleted at any time without prior notice. Dissemination of this information without the expressed written consent of the Public Affairs Office, Tulsa District U.S. Army Corps of Engineers is strictly prohibited. These data are gathered electronically and, as presented, have NOT undergone any form of quality control. These data are NOT guaranteed to be valid or correct.